ETD700 OMAA-FSIA
Flight info
| Callsign | ETD700 |
|---|---|
| Flight time | 3h 59m |
| Altitude | 37000 |
| Route | KANIP N318 LAKLU/N0449F380 Q204 HAI R401 SUHIL UM314 IMTIP DCT EPNOR T144 ROUTY |
| Aircraft | A320/M-SDE3FGHIRWY/LB1 |
Departure
| Time | 2026-04-24 15:09 |
|---|---|
| Airport | Zayed International Airport (OMAA) |
Arrival
| Time | 2026-04-24 19:09 |
|---|---|
| Airport | Seychelles International Airport (FSIA) |
| Time | Latitude | Longitude | Altitude | Speed | Heading |
|---|---|---|---|---|---|
| 2026-04-24 14:17 | 24.45325 | 54.64311 | 73 ft | 0 kts | 243° |
| 2026-04-24 14:30 | 24.45325 | 54.64312 | 73 ft | 0 kts | 243° |
| 2026-04-24 14:54 | 24.45325 | 54.64313 | 73 ft | 0 kts | 243° |
| 2026-04-24 14:54 | 24.45328 | 54.64318 | 66 ft | 4 kts | 239° |
| 2026-04-24 14:55 | 24.45338 | 54.64331 | 67 ft | 4 kts | 211° |
| 2026-04-24 14:55 | 24.45361 | 54.64353 | 68 ft | 4 kts | 219° |
| 2026-04-24 14:55 | 24.45383 | 54.64368 | 67 ft | 4 kts | 194° |
| 2026-04-24 14:55 | 24.45405 | 54.64368 | 64 ft | 1 kts | 151° |
| 2026-04-24 14:56 | 24.45409 | 54.64365 | 65 ft | 2 kts | 151° |
| 2026-04-24 14:59 | 24.45408 | 54.64366 | 64 ft | 1 kts | 151° |
| 2026-04-24 14:59 | 24.45398 | 54.64372 | 67 ft | 2 kts | 151° |
| 2026-04-24 14:59 | 24.45381 | 54.64383 | 63 ft | 4 kts | 144° |
| 2026-04-24 14:59 | 24.45322 | 54.64456 | 72 ft | 18 kts | 127° |
| 2026-04-24 15:00 | 24.45289 | 54.64591 | 65 ft | 19 kts | 99° |
| 2026-04-24 15:00 | 24.45264 | 54.64737 | 75 ft | 20 kts | 103° |
| 2026-04-24 15:00 | 24.45225 | 54.64898 | 73 ft | 24 kts | 105° |
| 2026-04-24 15:00 | 24.45144 | 54.65054 | 70 ft | 24 kts | 129° |
| 2026-04-24 15:01 | 24.45059 | 54.65146 | 68 ft | 13 kts | 172° |
| 2026-04-24 15:01 | 24.44982 | 54.65098 | 74 ft | 14 kts | 220° |
| 2026-04-24 15:01 | 24.44889 | 54.65018 | 69 ft | 20 kts | 217° |
| 2026-04-24 15:01 | 24.44777 | 54.64925 | 71 ft | 21 kts | 218° |
| 2026-04-24 15:02 | 24.44661 | 54.64825 | 71 ft | 22 kts | 214° |
| 2026-04-24 15:02 | 24.44539 | 54.64724 | 68 ft | 22 kts | 219° |
| 2026-04-24 15:02 | 24.44414 | 54.64616 | 75 ft | 23 kts | 218° |
| 2026-04-24 15:02 | 24.44290 | 54.64510 | 68 ft | 17 kts | 225° |
| 2026-04-24 15:03 | 24.44260 | 54.64426 | 74 ft | 18 kts | 246° |
| 2026-04-24 15:03 | 24.44150 | 54.64397 | 72 ft | 13 kts | 132° |
| 2026-04-24 15:03 | 24.44080 | 54.64494 | 75 ft | 20 kts | 127° |
| 2026-04-24 15:03 | 24.43983 | 54.64633 | 73 ft | 24 kts | 128° |
| 2026-04-24 15:04 | 24.43879 | 54.64778 | 76 ft | 25 kts | 128° |
| 2026-04-24 15:04 | 24.43771 | 54.64929 | 76 ft | 26 kts | 128° |
| 2026-04-24 15:04 | 24.43654 | 54.65095 | 70 ft | 30 kts | 128° |
| 2026-04-24 15:04 | 24.43523 | 54.65279 | 72 ft | 31 kts | 128° |
| 2026-04-24 15:05 | 24.43389 | 54.65469 | 76 ft | 32 kts | 128° |
| 2026-04-24 15:05 | 24.43248 | 54.65666 | 72 ft | 33 kts | 128° |
| 2026-04-24 15:05 | 24.43108 | 54.65863 | 72 ft | 33 kts | 128° |
| 2026-04-24 15:05 | 24.42967 | 54.66063 | 76 ft | 34 kts | 128° |
| 2026-04-24 15:06 | 24.42821 | 54.66265 | 73 ft | 32 kts | 128° |
| 2026-04-24 15:06 | 24.42685 | 54.66459 | 74 ft | 33 kts | 128° |
| 2026-04-24 15:06 | 24.42542 | 54.66659 | 73 ft | 34 kts | 128° |
| 2026-04-24 15:06 | 24.42433 | 54.66813 | 70 ft | 16 kts | 128° |
| 2026-04-24 15:07 | 24.42377 | 54.66871 | 68 ft | 6 kts | 167° |
| 2026-04-24 15:07 | 24.42332 | 54.66841 | 76 ft | 11 kts | 217° |
| 2026-04-24 15:07 | 24.42265 | 54.66783 | 71 ft | 13 kts | 219° |
| 2026-04-24 15:07 | 24.42191 | 54.66718 | 67 ft | 10 kts | 228° |
| 2026-04-24 15:08 | 24.42216 | 54.66651 | 64 ft | 15 kts | 309° |
| 2026-04-24 15:08 | 24.42374 | 54.66431 | 76 ft | 66 kts | 308° |
| 2026-04-24 15:08 | 24.42772 | 54.65871 | 76 ft | 118 kts | 308° |
| 2026-04-24 15:08 | 24.43369 | 54.65027 | 84 ft | 160 kts | 307° |
| 2026-04-24 15:09 | 24.44066 | 54.64056 | 582 ft | 159 kts | 309° |
| 2026-04-24 15:09 | 24.44533 | 54.63394 | 962 ft | 159 kts | 311° |
| 2026-04-24 15:10 | 24.44630 | 54.63254 | 1036 ft | 157 kts | 310° |
| 2026-04-24 15:10 | 24.45183 | 54.62310 | 1321 ft | 165 kts | 310° |
| 2026-04-24 15:10 | 24.45920 | 54.61276 | 1498 ft | 178 kts | 313° |
| 2026-04-24 15:11 | 24.46737 | 54.60185 | 1730 ft | 193 kts | 311° |
| 2026-04-24 15:11 | 24.47626 | 54.59001 | 1968 ft | 208 kts | 311° |
| 2026-04-24 15:11 | 24.48578 | 54.57704 | 2173 ft | 225 kts | 310° |
| 2026-04-24 15:11 | 24.49558 | 54.56333 | 2699 ft | 230 kts | 308° |
| 2026-04-24 15:12 | 24.50559 | 54.54934 | 3262 ft | 234 kts | 308° |
| 2026-04-24 15:12 | 24.52597 | 54.52114 | 4567 ft | 236 kts | 307° |
| 2026-04-24 15:12 | 24.53599 | 54.50697 | 5234 ft | 235 kts | 306° |
| 2026-04-24 15:13 | 24.54675 | 54.49301 | 5584 ft | 250 kts | 319° |
| 2026-04-24 15:13 | 24.56328 | 54.48469 | 5826 ft | 273 kts | 351° |
| 2026-04-24 15:13 | 24.58214 | 54.48739 | 6297 ft | 285 kts | 24° |
| 2026-04-24 15:13 | 24.59744 | 54.50142 | 6804 ft | 294 kts | 57° |
| 2026-04-24 15:14 | 24.60385 | 54.52266 | 7326 ft | 298 kts | 90° |
| 2026-04-24 15:14 | 24.59975 | 54.54491 | 7870 ft | 300 kts | 114° |
| 2026-04-24 15:14 | 24.59032 | 54.56527 | 8525 ft | 299 kts | 123° |
| 2026-04-24 15:14 | 24.57912 | 54.58456 | 9187 ft | 300 kts | 126° |
| 2026-04-24 15:15 | 24.56750 | 54.60367 | 9819 ft | 301 kts | 126° |
| 2026-04-24 15:15 | 24.55587 | 54.62324 | 10123 ft | 316 kts | 125° |
| 2026-04-24 15:15 | 24.54400 | 54.64407 | 10244 ft | 335 kts | 124° |
| 2026-04-24 15:15 | 24.53171 | 54.66666 | 10380 ft | 352 kts | 122° |
| 2026-04-24 15:16 | 24.51932 | 54.69019 | 10785 ft | 359 kts | 121° |
| 2026-04-24 15:16 | 24.50695 | 54.71410 | 11300 ft | 362 kts | 121° |
| 2026-04-24 15:16 | 24.49455 | 54.73825 | 11814 ft | 365 kts | 122° |
| 2026-04-24 15:16 | 24.48204 | 54.76256 | 12342 ft | 367 kts | 122° |
| 2026-04-24 15:17 | 24.46938 | 54.78704 | 12867 ft | 369 kts | 121° |
| 2026-04-24 15:17 | 24.45664 | 54.81162 | 13399 ft | 372 kts | 122° |
| 2026-04-24 15:17 | 24.44381 | 54.83631 | 13885 ft | 374 kts | 122° |
| 2026-04-24 15:17 | 24.43082 | 54.86130 | 14335 ft | 377 kts | 121° |
| 2026-04-24 15:18 | 24.41776 | 54.88640 | 14765 ft | 381 kts | 121° |
| 2026-04-24 15:18 | 24.40458 | 54.91170 | 15197 ft | 384 kts | 122° |
| 2026-04-24 15:18 | 24.39124 | 54.93725 | 15628 ft | 387 kts | 122° |
| 2026-04-24 15:18 | 24.37776 | 54.96301 | 16043 ft | 391 kts | 121° |
| 2026-04-24 15:19 | 24.36422 | 54.98895 | 16504 ft | 394 kts | 121° |
| 2026-04-24 15:19 | 24.35061 | 55.01509 | 16995 ft | 396 kts | 121° |
| 2026-04-24 15:19 | 24.33689 | 55.04141 | 17439 ft | 399 kts | 121° |
| 2026-04-24 15:19 | 24.32302 | 55.06794 | 17876 ft | 403 kts | 121° |
| 2026-04-24 15:20 | 24.30902 | 55.09465 | 18316 ft | 406 kts | 121° |
| 2026-04-24 15:20 | 24.29491 | 55.12158 | 18730 ft | 409 kts | 121° |
| 2026-04-24 15:20 | 24.28550 | 55.13954 | 19008 ft | 411 kts | 121° |
| 2026-04-24 15:20 | 24.27123 | 55.16678 | 19429 ft | 413 kts | 121° |
| 2026-04-24 15:21 | 24.25686 | 55.19424 | 19835 ft | 416 kts | 121° |
| 2026-04-24 15:21 | 24.23766 | 55.23089 | 20393 ft | 420 kts | 121° |
| 2026-04-24 15:21 | 24.22781 | 55.24965 | 20666 ft | 422 kts | 121° |
| 2026-04-24 15:21 | 24.21309 | 55.27761 | 21064 ft | 426 kts | 122° |
| 2026-04-24 15:22 | 24.19820 | 55.30589 | 21425 ft | 429 kts | 121° |
| 2026-04-24 15:22 | 24.18327 | 55.33428 | 21805 ft | 432 kts | 121° |
| 2026-04-24 15:22 | 24.17020 | 55.36409 | 22163 ft | 436 kts | 114° |
| 2026-04-24 15:23 | 24.14664 | 55.42575 | 22872 ft | 442 kts | 114° |
| 2026-04-24 15:23 | 24.12272 | 55.48824 | 23533 ft | 448 kts | 114° |
| 2026-04-24 15:23 | 24.11061 | 55.51972 | 23816 ft | 450 kts | 114° |
| 2026-04-24 15:24 | 24.07377 | 55.61491 | 24674 ft | 456 kts | 114° |
| 2026-04-24 15:25 | 24.04804 | 55.67806 | 25216 ft | 459 kts | 117° |
| 2026-04-24 15:25 | 24.01841 | 55.74014 | 25745 ft | 462 kts | 120° |
| 2026-04-24 15:26 | 23.97221 | 55.83336 | 26569 ft | 467 kts | 119° |
| 2026-04-24 15:27 | 23.92682 | 55.92836 | 27340 ft | 473 kts | 118° |
| 2026-04-24 15:27 | 23.88125 | 56.02417 | 28397 ft | 473 kts | 119° |
| 2026-04-24 15:28 | 23.82034 | 56.15107 | 29920 ft | 471 kts | 118° |
| 2026-04-24 15:29 | 23.78998 | 56.21430 | 30567 ft | 470 kts | 119° |
| 2026-04-24 15:30 | 23.74463 | 56.30861 | 31533 ft | 469 kts | 119° |
| 2026-04-24 15:31 | 23.68370 | 56.43465 | 32732 ft | 469 kts | 119° |
| 2026-04-24 15:32 | 23.62299 | 56.56054 | 33856 ft | 469 kts | 119° |
| 2026-04-24 15:33 | 23.56070 | 56.68883 | 33924 ft | 486 kts | 119° |
| 2026-04-24 15:34 | 23.48133 | 56.85188 | 33933 ft | 485 kts | 119° |
| 2026-04-24 15:35 | 23.39308 | 57.00667 | 33947 ft | 478 kts | 144° |
| 2026-04-24 15:35 | 23.36558 | 57.02652 | 33946 ft | 473 kts | 157° |
| 2026-04-24 15:36 | 23.33513 | 57.03922 | 33933 ft | 466 kts | 170° |
| 2026-04-24 15:36 | 23.27177 | 57.04222 | 33922 ft | 453 kts | 194° |
| 2026-04-24 15:36 | 23.24093 | 57.03510 | 33921 ft | 453 kts | 195° |
| 2026-04-24 15:37 | 23.17926 | 57.02044 | 33919 ft | 455 kts | 195° |
| 2026-04-24 15:37 | 23.11771 | 57.00591 | 33915 ft | 456 kts | 195° |
| 2026-04-24 15:38 | 23.05562 | 56.99126 | 33919 ft | 457 kts | 195° |
| 2026-04-24 15:38 | 22.99342 | 56.97675 | 33904 ft | 458 kts | 195° |
| 2026-04-24 15:39 | 22.93103 | 56.96218 | 33908 ft | 459 kts | 195° |
| 2026-04-24 15:39 | 22.86858 | 56.94748 | 33899 ft | 460 kts | 195° |
| 2026-04-24 15:40 | 22.80604 | 56.93287 | 33903 ft | 460 kts | 195° |
| 2026-04-24 15:40 | 22.74349 | 56.91827 | 33894 ft | 460 kts | 195° |
| 2026-04-24 15:41 | 22.68080 | 56.90356 | 33886 ft | 460 kts | 195° |
| 2026-04-24 15:41 | 22.61811 | 56.88887 | 33881 ft | 461 kts | 195° |
| 2026-04-24 15:42 | 22.55582 | 56.87431 | 33879 ft | 461 kts | 195° |
| 2026-04-24 15:42 | 22.49317 | 56.85966 | 33879 ft | 461 kts | 195° |
| 2026-04-24 15:43 | 22.42997 | 56.84490 | 33862 ft | 461 kts | 195° |
| 2026-04-24 15:43 | 22.36764 | 56.83031 | 33865 ft | 461 kts | 195° |
| 2026-04-24 15:44 | 22.30484 | 56.81570 | 33868 ft | 461 kts | 195° |
| 2026-04-24 15:44 | 22.24208 | 56.80114 | 33870 ft | 461 kts | 195° |
| 2026-04-24 15:45 | 22.17928 | 56.78653 | 33871 ft | 461 kts | 195° |
| 2026-04-24 15:45 | 22.11652 | 56.77194 | 33863 ft | 462 kts | 195° |
| 2026-04-24 15:46 | 22.05367 | 56.75739 | 33864 ft | 462 kts | 195° |
| 2026-04-24 15:46 | 21.99118 | 56.74294 | 33867 ft | 462 kts | 195° |
| 2026-04-24 15:47 | 21.92821 | 56.72833 | 33869 ft | 463 kts | 195° |
| 2026-04-24 15:47 | 21.86527 | 56.71369 | 33873 ft | 463 kts | 195° |
| 2026-04-24 15:48 | 21.80216 | 56.69907 | 33840 ft | 465 kts | 195° |
| 2026-04-24 15:48 | 21.73857 | 56.68436 | 33835 ft | 468 kts | 195° |
| 2026-04-24 15:49 | 21.67478 | 56.66964 | 33834 ft | 470 kts | 195° |
| 2026-04-24 15:49 | 21.61102 | 56.65497 | 33840 ft | 471 kts | 195° |
| 2026-04-24 15:50 | 21.54680 | 56.64028 | 33845 ft | 472 kts | 195° |
| 2026-04-24 15:50 | 21.48250 | 56.62545 | 33850 ft | 472 kts | 195° |
| 2026-04-24 15:51 | 21.41829 | 56.61061 | 33850 ft | 472 kts | 195° |
| 2026-04-24 15:51 | 21.35394 | 56.59580 | 33854 ft | 472 kts | 195° |
| 2026-04-24 15:52 | 21.28969 | 56.58105 | 33861 ft | 473 kts | 195° |
| 2026-04-24 15:52 | 21.22529 | 56.56628 | 33855 ft | 473 kts | 195° |
| 2026-04-24 15:53 | 21.16121 | 56.55160 | 33863 ft | 474 kts | 195° |
| 2026-04-24 15:53 | 21.09672 | 56.53687 | 33867 ft | 474 kts | 195° |
| 2026-04-24 15:54 | 21.03217 | 56.52215 | 33873 ft | 474 kts | 195° |
| 2026-04-24 15:54 | 20.96765 | 56.50743 | 33865 ft | 474 kts | 195° |
| 2026-04-24 15:55 | 20.90305 | 56.49263 | 33870 ft | 475 kts | 195° |
| 2026-04-24 15:55 | 20.83846 | 56.47777 | 33872 ft | 475 kts | 195° |
| 2026-04-24 15:56 | 20.77375 | 56.46299 | 33874 ft | 475 kts | 195° |
| 2026-04-24 15:56 | 20.70916 | 56.44836 | 33874 ft | 475 kts | 195° |
| 2026-04-24 15:57 | 20.64448 | 56.43364 | 33867 ft | 476 kts | 195° |
| 2026-04-24 15:57 | 20.57966 | 56.41889 | 33871 ft | 476 kts | 195° |
| 2026-04-24 15:58 | 20.51485 | 56.40419 | 33873 ft | 476 kts | 195° |
| 2026-04-24 15:58 | 20.44997 | 56.38944 | 33878 ft | 477 kts | 195° |
| 2026-04-24 15:59 | 20.38510 | 56.37469 | 33875 ft | 477 kts | 195° |
| 2026-04-24 15:59 | 20.32020 | 56.35997 | 33873 ft | 477 kts | 195° |
| 2026-04-24 16:00 | 20.25525 | 56.34529 | 33877 ft | 477 kts | 195° |
| 2026-04-24 16:00 | 20.19025 | 56.33056 | 33880 ft | 478 kts | 195° |
| 2026-04-24 16:01 | 20.12517 | 56.31579 | 33882 ft | 478 kts | 195° |
| 2026-04-24 16:01 | 20.06015 | 56.30106 | 33885 ft | 478 kts | 195° |
| 2026-04-24 16:02 | 19.99505 | 56.28637 | 33883 ft | 478 kts | 195° |
| 2026-04-24 16:02 | 19.93022 | 56.27098 | 33883 ft | 477 kts | 197° |
| 2026-04-24 16:03 | 19.86610 | 56.25332 | 33886 ft | 476 kts | 198° |
| 2026-04-24 16:03 | 19.80203 | 56.23518 | 33881 ft | 476 kts | 198° |
| 2026-04-24 16:04 | 19.73817 | 56.21771 | 33877 ft | 477 kts | 198° |
| 2026-04-24 16:04 | 19.67375 | 56.20048 | 33875 ft | 477 kts | 198° |
| 2026-04-24 16:05 | 19.57710 | 56.17455 | 33886 ft | 478 kts | 198° |
| 2026-04-24 16:06 | 19.48035 | 56.14849 | 33883 ft | 478 kts | 198° |
| 2026-04-24 16:07 | 19.39439 | 56.12527 | 33885 ft | 479 kts | 198° |
| 2026-04-24 16:07 | 19.29743 | 56.09925 | 33889 ft | 479 kts | 197° |
| 2026-04-24 16:08 | 19.20040 | 56.07326 | 33893 ft | 480 kts | 197° |
| 2026-04-24 16:09 | 19.10314 | 56.04705 | 33897 ft | 481 kts | 197° |
| 2026-04-24 16:09 | 19.03809 | 56.02961 | 33902 ft | 482 kts | 197° |
| 2026-04-24 16:11 | 18.87548 | 55.98613 | 33909 ft | 482 kts | 197° |
| 2026-04-24 16:11 | 18.81034 | 55.96869 | 33904 ft | 483 kts | 197° |
| 2026-04-24 16:12 | 18.71247 | 55.94272 | 33916 ft | 484 kts | 197° |
| 2026-04-24 16:13 | 18.61439 | 55.91666 | 33925 ft | 484 kts | 197° |
| 2026-04-24 16:14 | 18.48402 | 55.88188 | 33932 ft | 485 kts | 197° |
| 2026-04-24 16:14 | 18.38580 | 55.85575 | 33934 ft | 485 kts | 197° |
| 2026-04-24 16:15 | 18.28759 | 55.82976 | 33948 ft | 485 kts | 197° |
| 2026-04-24 16:16 | 18.18925 | 55.80367 | 33939 ft | 486 kts | 197° |
| 2026-04-24 16:17 | 18.02573 | 55.76048 | 33940 ft | 486 kts | 197° |
| 2026-04-24 16:18 | 17.89193 | 55.73749 | 33925 ft | 489 kts | 189° |
| 2026-04-24 16:19 | 17.79050 | 55.72460 | 33921 ft | 489 kts | 189° |
| 2026-04-24 16:20 | 17.68907 | 55.71153 | 33917 ft | 490 kts | 189° |
| 2026-04-24 16:20 | 17.58743 | 55.69860 | 33909 ft | 491 kts | 189° |
| 2026-04-24 16:21 | 17.48559 | 55.68559 | 33916 ft | 492 kts | 189° |
| 2026-04-24 16:22 | 17.41758 | 55.67687 | 33919 ft | 492 kts | 189° |
| 2026-04-24 16:22 | 17.31537 | 55.66388 | 33914 ft | 494 kts | 189° |
| 2026-04-24 16:23 | 17.24714 | 55.65520 | 33915 ft | 494 kts | 189° |
| 2026-04-24 16:24 | 17.14476 | 55.64210 | 33920 ft | 494 kts | 189° |
| 2026-04-24 16:24 | 17.07638 | 55.63343 | 33918 ft | 495 kts | 189° |
| 2026-04-24 16:25 | 17.01956 | 55.62624 | 33919 ft | 496 kts | 189° |
| 2026-04-24 16:26 | 16.83388 | 55.60274 | 33923 ft | 496 kts | 189° |
| 2026-04-24 16:27 | 16.66756 | 55.58193 | 33919 ft | 498 kts | 190° |
| 2026-04-24 16:28 | 16.59859 | 55.57331 | 33936 ft | 499 kts | 189° |
| 2026-04-24 16:28 | 16.49565 | 55.56051 | 33920 ft | 499 kts | 190° |
| 2026-04-24 16:29 | 16.42668 | 55.55182 | 33922 ft | 499 kts | 190° |
| 2026-04-24 16:30 | 16.28861 | 55.53469 | 33924 ft | 500 kts | 190° |
| 2026-04-24 16:30 | 16.21959 | 55.52608 | 33915 ft | 500 kts | 190° |
| 2026-04-24 16:31 | 16.15047 | 55.51750 | 33908 ft | 500 kts | 190° |
| 2026-04-24 16:31 | 16.08131 | 55.50888 | 33919 ft | 500 kts | 190° |
| 2026-04-24 16:32 | 16.01219 | 55.50028 | 33919 ft | 501 kts | 190° |
| 2026-04-24 16:32 | 15.94286 | 55.49168 | 33920 ft | 501 kts | 190° |
| 2026-04-24 16:33 | 15.87368 | 55.48314 | 33925 ft | 501 kts | 190° |
| 2026-04-24 16:33 | 15.80432 | 55.47449 | 33918 ft | 502 kts | 190° |
| 2026-04-24 16:34 | 15.73493 | 55.46590 | 33914 ft | 502 kts | 190° |
| 2026-04-24 16:34 | 15.66594 | 55.45742 | 33918 ft | 502 kts | 190° |
| 2026-04-24 16:35 | 15.59651 | 55.44885 | 33924 ft | 503 kts | 190° |
| 2026-04-24 16:35 | 15.52705 | 55.44024 | 33923 ft | 503 kts | 190° |
| 2026-04-24 16:36 | 15.45754 | 55.43162 | 33925 ft | 503 kts | 190° |
| 2026-04-24 16:36 | 15.38796 | 55.42305 | 33937 ft | 503 kts | 190° |
| 2026-04-24 16:37 | 15.31843 | 55.41448 | 33919 ft | 504 kts | 190° |
| 2026-04-24 16:37 | 15.24864 | 55.40588 | 33917 ft | 504 kts | 190° |
| 2026-04-24 16:38 | 15.17890 | 55.39727 | 33917 ft | 505 kts | 190° |
| 2026-04-24 16:38 | 15.10923 | 55.38859 | 33919 ft | 504 kts | 190° |
| 2026-04-24 16:39 | 15.03955 | 55.37978 | 33919 ft | 504 kts | 190° |
| 2026-04-24 16:39 | 14.96976 | 55.37101 | 33920 ft | 505 kts | 190° |
| 2026-04-24 16:40 | 14.90004 | 55.36234 | 33917 ft | 505 kts | 190° |
| 2026-04-24 16:40 | 14.83068 | 55.35374 | 33917 ft | 505 kts | 190° |
| 2026-04-24 16:41 | 14.76081 | 55.34501 | 33916 ft | 506 kts | 190° |
| 2026-04-24 16:41 | 14.69096 | 55.33622 | 33908 ft | 506 kts | 191° |
| 2026-04-24 16:42 | 14.62110 | 55.32746 | 33912 ft | 506 kts | 190° |
| 2026-04-24 16:42 | 14.55109 | 55.31875 | 33916 ft | 506 kts | 191° |
| 2026-04-24 16:43 | 14.48108 | 55.31001 | 33920 ft | 507 kts | 190° |
| 2026-04-24 16:43 | 14.41100 | 55.30135 | 33915 ft | 507 kts | 190° |
| 2026-04-24 16:44 | 14.34090 | 55.29261 | 33918 ft | 508 kts | 191° |
| 2026-04-24 16:44 | 14.27067 | 55.28380 | 33922 ft | 508 kts | 191° |
| 2026-04-24 16:45 | 14.20046 | 55.27508 | 33920 ft | 508 kts | 190° |
| 2026-04-24 16:45 | 14.13033 | 55.26646 | 33913 ft | 508 kts | 190° |
| 2026-04-24 16:46 | 14.06013 | 55.25770 | 33915 ft | 508 kts | 191° |
| 2026-04-24 16:46 | 13.98995 | 55.24895 | 33916 ft | 508 kts | 191° |
| 2026-04-24 16:47 | 13.91966 | 55.24026 | 33920 ft | 508 kts | 191° |
| 2026-04-24 16:47 | 13.84946 | 55.23153 | 33920 ft | 508 kts | 191° |
| 2026-04-24 16:48 | 13.77970 | 55.22276 | 33913 ft | 508 kts | 191° |
| 2026-04-24 16:48 | 13.70909 | 55.21379 | 33913 ft | 508 kts | 191° |
| 2026-04-24 16:49 | 13.63885 | 55.20489 | 33912 ft | 508 kts | 191° |
| 2026-04-24 16:49 | 13.56906 | 55.19614 | 33913 ft | 508 kts | 191° |
| 2026-04-24 16:50 | 13.49885 | 55.18735 | 33909 ft | 509 kts | 191° |
| 2026-04-24 16:50 | 13.42852 | 55.17854 | 33911 ft | 509 kts | 191° |
| 2026-04-24 16:51 | 13.35819 | 55.16957 | 33910 ft | 509 kts | 191° |
| 2026-04-24 16:51 | 13.28786 | 55.16072 | 33914 ft | 509 kts | 191° |
| 2026-04-24 16:52 | 13.21745 | 55.15192 | 33911 ft | 509 kts | 191° |
| 2026-04-24 16:52 | 13.14713 | 55.14321 | 33913 ft | 510 kts | 191° |
| 2026-04-24 16:53 | 13.07670 | 55.13445 | 33921 ft | 510 kts | 191° |
| 2026-04-24 16:53 | 13.00672 | 55.12562 | 33922 ft | 510 kts | 191° |
| 2026-04-24 16:54 | 12.93627 | 55.11670 | 33922 ft | 510 kts | 191° |
| 2026-04-24 16:54 | 12.86581 | 55.10781 | 33920 ft | 511 kts | 191° |
| 2026-04-24 16:55 | 12.79470 | 55.09899 | 33913 ft | 511 kts | 191° |
| 2026-04-24 16:55 | 12.72452 | 55.09030 | 33914 ft | 511 kts | 191° |
| 2026-04-24 16:56 | 12.65692 | 55.08188 | 33906 ft | 510 kts | 191° |
| 2026-04-24 16:56 | 12.58639 | 55.07307 | 33903 ft | 510 kts | 191° |
| 2026-04-24 16:57 | 12.51588 | 55.06419 | 33903 ft | 510 kts | 191° |
| 2026-04-24 16:57 | 12.44537 | 55.05536 | 33900 ft | 510 kts | 191° |
| 2026-04-24 16:58 | 12.37493 | 55.04658 | 33902 ft | 510 kts | 191° |
| 2026-04-24 16:58 | 12.30437 | 55.03776 | 33899 ft | 510 kts | 191° |
| 2026-04-24 16:59 | 12.23379 | 55.02905 | 33902 ft | 511 kts | 191° |
| 2026-04-24 17:00 | 12.12841 | 55.01606 | 33900 ft | 511 kts | 191° |
| 2026-04-24 17:00 | 12.02261 | 55.00281 | 33895 ft | 511 kts | 191° |
| 2026-04-24 17:01 | 11.91541 | 55.00002 | 33895 ft | 515 kts | 183° |
| 2026-04-24 17:02 | 11.82001 | 55.00005 | 33898 ft | 515 kts | 183° |
| 2026-04-24 17:02 | 11.74829 | 55.00000 | 33901 ft | 515 kts | 183° |
| 2026-04-24 17:03 | 11.64060 | 54.99989 | 33902 ft | 516 kts | 183° |
| 2026-04-24 17:04 | 11.56881 | 54.99990 | 33905 ft | 516 kts | 183° |
| 2026-04-24 17:04 | 11.46102 | 54.99994 | 33906 ft | 516 kts | 183° |
| 2026-04-24 17:05 | 11.38914 | 54.99997 | 33903 ft | 516 kts | 183° |
| 2026-04-24 17:06 | 11.28137 | 54.99998 | 33899 ft | 516 kts | 183° |
| 2026-04-24 17:06 | 11.17359 | 54.99995 | 33899 ft | 516 kts | 183° |
| 2026-04-24 17:07 | 11.10174 | 55.00002 | 33894 ft | 516 kts | 183° |
| 2026-04-24 17:08 | 10.95794 | 54.99990 | 33892 ft | 517 kts | 183° |
| 2026-04-24 17:08 | 10.88604 | 54.99989 | 33894 ft | 517 kts | 183° |
| 2026-04-24 17:09 | 10.74258 | 54.99995 | 33890 ft | 517 kts | 183° |
| 2026-04-24 17:10 | 10.59874 | 54.99995 | 33890 ft | 517 kts | 183° |
| 2026-04-24 17:12 | 10.31072 | 54.99987 | 33894 ft | 517 kts | 183° |
| 2026-04-24 18:54 | -3.75359 | 55.44724 | 17752 ft | 424 kts | 177° |
| 2026-04-24 18:55 | -3.81225 | 55.44957 | 16579 ft | 419 kts | 177° |
| 2026-04-24 18:55 | -3.84127 | 55.45069 | 15972 ft | 417 kts | 177° |
| 2026-04-24 18:55 | -3.87010 | 55.45175 | 15358 ft | 410 kts | 178° |
| 2026-04-24 18:56 | -3.89798 | 55.45275 | 14766 ft | 394 kts | 178° |
| 2026-04-24 18:56 | -3.92533 | 55.45374 | 14163 ft | 392 kts | 178° |
| 2026-04-24 18:56 | -3.95220 | 55.45476 | 13574 ft | 390 kts | 178° |
| 2026-04-24 18:56 | -3.97927 | 55.45582 | 12929 ft | 388 kts | 178° |
| 2026-04-24 18:57 | -4.00616 | 55.45691 | 12336 ft | 384 kts | 178° |
| 2026-04-24 18:57 | -4.03274 | 55.45794 | 11745 ft | 381 kts | 178° |
| 2026-04-24 18:57 | -4.05907 | 55.45896 | 11263 ft | 375 kts | 178° |
| 2026-04-24 18:57 | -4.08505 | 55.45996 | 10726 ft | 372 kts | 178° |
| 2026-04-24 18:58 | -4.11037 | 55.46092 | 10584 ft | 357 kts | 178° |
| 2026-04-24 18:58 | -4.13477 | 55.46184 | 10460 ft | 343 kts | 178° |
| 2026-04-24 18:58 | -4.15808 | 55.46272 | 10345 ft | 328 kts | 178° |
| 2026-04-24 18:58 | -4.18015 | 55.46352 | 10086 ft | 310 kts | 179° |
| 2026-04-24 18:59 | -4.20146 | 55.46384 | 9754 ft | 302 kts | 180° |
| 2026-04-24 18:59 | -4.22250 | 55.46379 | 9633 ft | 302 kts | 181° |
| 2026-04-24 18:59 | -4.24350 | 55.46362 | 9418 ft | 302 kts | 181° |
| 2026-04-24 18:59 | -4.26457 | 55.46345 | 9035 ft | 302 kts | 181° |
| 2026-04-24 19:00 | -4.28555 | 55.46331 | 8638 ft | 301 kts | 181° |
| 2026-04-24 19:00 | -4.30628 | 55.46322 | 8243 ft | 295 kts | 181° |
| 2026-04-24 19:00 | -4.32671 | 55.46317 | 7848 ft | 289 kts | 181° |
| 2026-04-24 19:00 | -4.34656 | 55.46315 | 7480 ft | 280 kts | 181° |
| 2026-04-24 19:01 | -4.36574 | 55.46316 | 7109 ft | 272 kts | 181° |
| 2026-04-24 19:01 | -4.38435 | 55.46316 | 6759 ft | 264 kts | 181° |
| 2026-04-24 19:01 | -4.40220 | 55.46312 | 6424 ft | 255 kts | 183° |
| 2026-04-24 19:01 | -4.41921 | 55.45946 | 6078 ft | 245 kts | 206° |
| 2026-04-24 19:02 | -4.42876 | 55.45388 | 5851 ft | 237 kts | 220° |
| 2026-04-24 19:02 | -4.44258 | 55.43791 | 5426 ft | 225 kts | 236° |
| 2026-04-24 19:02 | -4.45150 | 55.42518 | 5107 ft | 221 kts | 236° |
| 2026-04-24 19:02 | -4.46037 | 55.41262 | 4810 ft | 221 kts | 236° |
| 2026-04-24 19:03 | -4.46927 | 55.40000 | 4491 ft | 222 kts | 235° |
| 2026-04-24 19:03 | -4.48051 | 55.38975 | 4167 ft | 222 kts | 201° |
| 2026-04-24 19:03 | -4.49553 | 55.38919 | 3862 ft | 220 kts | 160° |
| 2026-04-24 19:03 | -4.50904 | 55.39622 | 3612 ft | 217 kts | 147° |
| 2026-04-24 19:04 | -4.52100 | 55.40483 | 3292 ft | 206 kts | 143° |
| 2026-04-24 19:04 | -4.53202 | 55.41332 | 3001 ft | 195 kts | 143° |
| 2026-04-24 19:04 | -4.54255 | 55.42139 | 2735 ft | 185 kts | 144° |
| 2026-04-24 19:04 | -4.55257 | 55.42892 | 2480 ft | 175 kts | 144° |
| 2026-04-24 19:05 | -4.56205 | 55.43590 | 2269 ft | 163 kts | 145° |
| 2026-04-24 19:05 | -4.56967 | 55.44142 | 2132 ft | 153 kts | 145° |
| 2026-04-24 19:05 | -4.57819 | 55.44754 | 1925 ft | 149 kts | 146° |
| 2026-04-24 19:05 | -4.58659 | 55.45355 | 1750 ft | 147 kts | 146° |
| 2026-04-24 19:06 | -4.59492 | 55.45947 | 1568 ft | 146 kts | 146° |
| 2026-04-24 19:06 | -4.60316 | 55.46532 | 1378 ft | 145 kts | 145° |
| 2026-04-24 19:06 | -4.61139 | 55.47115 | 1209 ft | 145 kts | 146° |
| 2026-04-24 19:06 | -4.61965 | 55.47690 | 1013 ft | 144 kts | 146° |
| 2026-04-24 19:07 | -4.62798 | 55.48229 | 861 ft | 144 kts | 152° |
| 2026-04-24 19:07 | -4.63714 | 55.48660 | 688 ft | 143 kts | 160° |
| 2026-04-24 19:07 | -4.64330 | 55.48893 | 608 ft | 143 kts | 161° |
| 2026-04-24 19:07 | -4.65466 | 55.49540 | 385 ft | 142 kts | 138° |
| 2026-04-24 19:08 | -4.66110 | 55.50298 | 234 ft | 143 kts | 128° |
| 2026-04-24 19:08 | -4.66693 | 55.51111 | 79 ft | 144 kts | 126° |
| 2026-04-24 19:08 | -4.67224 | 55.51867 | 23 ft | 109 kts | 123° |
| 2026-04-24 19:08 | -4.67524 | 55.52307 | 22 ft | 61 kts | 124° |
| 2026-04-24 19:09 | -4.67731 | 55.52608 | 20 ft | 44 kts | 125° |
| 2026-04-24 19:09 | -4.67889 | 55.52838 | 21 ft | 39 kts | 124° |
| 2026-04-24 19:09 | -4.68036 | 55.53052 | 23 ft | 33 kts | 125° |
| 2026-04-24 19:09 | -4.68134 | 55.53150 | 23 ft | 16 kts | 165° |
| 2026-04-24 19:10 | -4.68248 | 55.53179 | 21 ft | 13 kts | 154° |
| 2026-04-24 19:10 | -4.68264 | 55.53234 | 22 ft | 10 kts | 64° |
| 2026-04-24 19:10 | -4.68199 | 55.53265 | 22 ft | 10 kts | 354° |
| 2026-04-24 19:10 | -4.68146 | 55.53210 | 22 ft | 13 kts | 305° |
| 2026-04-24 19:11 | -4.68091 | 55.53131 | 23 ft | 15 kts | 305° |
| 2026-04-24 19:11 | -4.68029 | 55.53039 | 23 ft | 17 kts | 302° |
| 2026-04-24 19:11 | -4.67958 | 55.52929 | 23 ft | 21 kts | 303° |
| 2026-04-24 19:11 | -4.67871 | 55.52802 | 21 ft | 23 kts | 306° |
| 2026-04-24 19:12 | -4.67771 | 55.52664 | 20 ft | 26 kts | 306° |
| 2026-04-24 19:12 | -4.67666 | 55.52510 | 21 ft | 28 kts | 304° |
| 2026-04-24 19:12 | -4.67554 | 55.52345 | 22 ft | 30 kts | 304° |
| 2026-04-24 19:12 | -4.67431 | 55.52173 | 23 ft | 31 kts | 304° |
| 2026-04-24 19:13 | -4.67349 | 55.52049 | 22 ft | 32 kts | 304° |
| 2026-04-24 19:13 | -4.67171 | 55.51794 | 22 ft | 35 kts | 304° |
| 2026-04-24 19:13 | -4.67033 | 55.51589 | 22 ft | 36 kts | 304° |
| 2026-04-24 19:13 | -4.66922 | 55.51429 | 21 ft | 21 kts | 305° |
| 2026-04-24 19:14 | -4.66910 | 55.51361 | 23 ft | 11 kts | 234° |
| 2026-04-24 19:14 | -4.66969 | 55.51320 | 21 ft | 0 kts | 214° |
| 2026-04-24 19:14 | -4.66975 | 55.51316 | 22 ft | 2 kts | 214° |
| 2026-04-24 19:15 | -4.66998 | 55.51299 | 20 ft | 7 kts | 220° |
| 2026-04-24 19:15 | -4.67015 | 55.51247 | 20 ft | 9 kts | 287° |
| 2026-04-24 19:15 | -4.66993 | 55.51205 | 20 ft | 4 kts | 279° |
| 2026-04-24 19:15 | -4.67014 | 55.51183 | 22 ft | 5 kts | 216° |
| 2026-04-24 19:16 | -4.67050 | 55.51158 | 20 ft | 1 kts | 215° |
| 2026-04-24 19:16 | -4.67052 | 55.51157 | 20 ft | 0 kts | 214° |